AZO weather

Kalamazoo Battle Creek International Airport
Kalamazoo, Michigan, United States

Public forecast

Using degrees Fahrenheit for public forecast. Weather courtesy of forecast.io.

Current aviation weather report (METAR) for Kalamazoo Battle Creek International Airport

Retrieved 2020/07/09 10:42 UTC (16 minutes ago):

KAZO 091042Z 00000KT 10SM CLR 21/20 A2994 RMK AO2 T02110200

Aviation forecast (TAF) for Kalamazoo Battle Creek International Airport

Retrieved 2020/07/09 06:42 UTC (4 hours ago):

TAF KAZO 090540Z 0906/1006 VRB03KT P6SM BKN250 FM091400 20008KT P6SM BKN050 FM091800 20008KT P6SM VCTS BKN050CB PROB30 0919/0922 2SM TSRA BKN040CB FM100000 26005KT P6SM BKN080